메인 페이지
METAR-TAF:

METAR-TAF

공항 :

이스탄불 신공항

이스탄불, 터키

위도: 41-16-31N, 경도: 028-45-07E, 고도: 99m

현재 날씨관측

예보는 46분 전, 13:50시(UTC)에 발표되었습니다.
남동5kt
온도 17°C
습도 48%
기압 1003 hPa
시정 10km 이상
1500m 미만 상공 구름 및 적란운 없음

METAR: LTFM 141350Z 14005KT CAVOK 17/06 Q1003 NOSIG RMK RWY17L 13005KT 090V200 RWY34L 14004KT 110V170 RWY16R 14006KT

시각: 17:36 (14:36 UTC)

예보

예보는 3 시간 56분 전, 10:40시(UTC)에 발표되었습니다.
예보 대상 시간: 14일 12시부터 15일 18시까지 (UTC)
12kt
시정 10km 이상
1500m 미만 상공 구름 및 적란운 없음
일시적
14일 12시부터 14일 15시까지 (UTC)
15kt, 순간 최대 풍속 25kt
전환 중
14일 18시부터 14일 21시까지 (UTC)
여러 방향의 바람 2kt
고도 2000ft 상공 구름 보통
고도 10000ft 상공 구름 많음
전환 중
15일 03시부터 15일 06시까지 (UTC)
13kt
일시적
15일 08시부터 15일 12시까지 (UTC)
고도 2000ft 상공 구름 많음
고도 8000ft 상공 구름 많음
약한소나기
전환 중
15일 12시부터 15일 15시까지 (UTC)
여러 방향의 바람 2kt

TAF: LTFM 141040Z 1412/1518 17012KT CAVOK TEMPO 1412/1415 18015G25KT BECMG 1418/1421 VRB02KT SCT020 BKN100 BECMG 1503/1506 35013KT TEMPO 1508/1512 -SHRA BKN020 BKN080 BECMG 1512/1515 VRB02KT

4,000개 이상의 공항 관측 자료 및 예보 (METAR 및 TAF 보고).

지도상에서 검색 가능한 기상관측소가 노란 점과 빨간 점으로 표시되어 있습니다.

기상관측소 명을 보려면 표시 위로 마우스를 이동하세요.

날씨 관측과 예보를 보려면 클릭하세요.

지도 변경 : 확대하려면 엑스 표시가 있는 녹색 버튼, 축소하려면 빼기 표시가 있는 녹색 버튼, 다음 페이지의 지도를 보려면 녹색 화살표를 클릭하세요.


METAR-TAF: